Time;durP1;ratioP1;P1;durP2;ratioP2;P2;SDS_P1;SDS_P2;PMS_P1;PMS_P2;Temp;Humidity;BMP_temperature;BMP_pressure;BME280_temperature;BME280_humidity;BME280_pressure;Samples;Min_cycle;Max_cycle;Signal;HPM_P1;HPM_P2
2023/05/08 00:01:53;;;;;;;7.13;4.20;;;;;;;-145.41;100.00;58600.66;4991941;28;20493;-77
2023/05/08 00:04:19;;;;;;;6.57;4.32;;;;;;;-145.41;100.00;58600.66;4991752;28;20046;-77
2023/05/08 00:06:45;;;;;;;6.55;4.60;;;;;;;-145.41;100.00;58600.66;4991724;28;20042;-77
2023/05/08 00:09:11;;;;;;;6.90;4.60;;;;;;;-145.41;100.00;58600.66;4991494;28;20046;-77
2023/05/08 00:11:37;;;;;;;7.20;4.50;;;;;;;-145.41;100.00;58600.66;4991496;28;20045;-77
2023/05/08 00:14:02;;;;;;;6.28;4.43;;;;;;;-145.41;100.00;58600.66;4991742;28;20038;-77
2023/05/08 00:16:28;;;;;;;6.13;3.80;;;;;;;-145.41;100.00;58600.66;4991461;28;20121;-77
2023/05/08 00:18:53;;;;;;;6.35;4.53;;;;;;;-145.41;100.00;58600.66;4977671;28;20185;-77
2023/05/08 00:21:19;;;;;;;7.22;4.25;;;;;;;-145.41;100.00;58600.66;4995598;28;20026;-77
2023/05/08 00:23:44;;;;;;;7.18;4.50;;;;;;;-145.41;100.00;58600.66;4995588;28;20045;-77
2023/05/08 00:26:10;;;;;;;7.30;4.70;;;;;;;-145.41;100.00;58600.66;4978132;28;20042;-77
2023/05/08 00:28:35;;;;;;;6.88;4.07;;;;;;;-145.41;100.00;58600.66;4995397;28;20049;-77
2023/05/08 00:31:01;;;;;;;6.13;4.35;;;;;;;-145.41;100.00;58600.66;4995117;28;20030;-77
2023/05/08 00:33:26;;;;;;;8.25;4.20;;;;;;;-145.41;100.00;58600.66;4977728;28;20128;-77
2023/05/08 00:35:58;;;;;;;6.63;3.97;;;;;;;-145.41;100.00;58600.66;4987546;28;20043;-77
2023/05/08 00:38:23;;;;;;;6.47;4.00;;;;;;;-145.41;100.00;58600.66;4995243;28;20078;-77
2023/05/08 00:40:48;;;;;;;5.55;3.90;;;;;;;-145.41;100.00;58600.66;4994943;28;20034;-77
2023/05/08 00:43:14;;;;;;;7.78;3.80;;;;;;;-145.41;100.00;58600.66;4985425;28;20038;-77
2023/05/08 00:45:40;;;;;;;5.95;3.53;;;;;;;-145.41;100.00;58600.66;5010521;23;20074;-76
2023/05/08 00:48:06;;;;;;;5.90;3.80;;;;;;;-145.41;100.00;58600.66;5003932;28;20038;-73
2023/05/08 00:50:32;;;;;;;7.78;4.07;;;;;;;-145.41;100.00;58600.66;4986603;28;20034;-74
2023/05/08 00:52:59;;;;;;;6.55;3.72;;;;;;;-145.41;100.00;58600.66;5005893;28;20453;-73
2023/05/08 00:55:24;;;;;;;6.93;4.22;;;;;;;-145.41;100.00;58600.66;5002201;28;20025;-74
2023/05/08 00:57:51;;;;;;;6.28;4.32;;;;;;;-145.41;100.00;58600.66;4983612;28;20118;-73
2023/05/08 01:00:17;;;;;;;6.10;4.05;;;;;;;-145.41;100.00;58600.66;4986880;28;20091;-73
2023/05/08 01:02:43;;;;;;;6.03;3.92;;;;;;;-145.41;100.00;58600.66;4965790;28;20034;-73
2023/05/08 01:05:09;;;;;;;7.30;4.40;;;;;;;-145.41;100.00;58600.66;4968885;28;20397;-73
2023/05/08 01:07:34;;;;;;;5.78;4.25;;;;;;;-145.41;100.00;58600.66;4986477;28;20041;-74
2023/05/08 01:10:00;;;;;;;5.97;4.43;;;;;;;-145.41;100.00;58600.66;4983203;28;20042;-73
2023/05/08 01:12:51;;;;;;;7.68;4.95;;;;;;;-145.41;100.00;58600.66;4986802;28;20097;-73
2023/05/08 01:15:22;;;;;;;6.55;4.60;;;;;;;-145.41;100.00;58600.66;4962518;28;20042;-73
2023/05/08 01:18:27;;;;;;;5.90;4.10;;;;;;;-145.41;100.00;58600.66;4985885;28;20405;-73
2023/05/08 01:21:07;;;;;;;8.02;4.80;;;;;;;-145.41;100.00;58600.66;4983450;28;20049;-74
2023/05/08 01:23:53;;;;;;;6.07;4.60;;;;;;;-145.41;100.00;58600.66;4947375;28;20095;-73
2023/05/08 01:26:46;;;;;;;6.60;4.57;;;;;;;-145.41;100.00;58600.66;4983143;28;20089;-74
2023/05/08 01:29:29;;;;;;;6.72;4.35;;;;;;;-145.41;100.00;58600.66;4963000;28;20442;-73
2023/05/08 01:32:13;;;;;;;;;;;;;;;-145.41;100.00;58600.66;4964130;28;20049;-73
2023/05/08 01:34:45;;;;;;;8.90;5.18;;;;;;;-145.41;100.00;58600.66;4979651;28;19913;-73
2023/05/08 01:37:15;;;;;;;6.88;4.80;;;;;;;-145.41;100.00;58600.66;4983376;28;20026;-73
2023/05/08 01:39:47;;;;;;;7.32;5.07;;;;;;;-145.41;100.00;58600.66;4966922;28;20077;-73
2023/05/08 01:42:27;;;;;;;6.03;5.03;;;;;;;-145.41;100.00;58600.66;4986366;28;20045;-73
2023/05/08 01:45:02;;;;;;;7.32;4.70;;;;;;;-145.41;100.00;58600.66;4981065;28;20042;-73
2023/05/08 01:47:32;;;;;;;6.22;4.35;;;;;;;-145.41;100.00;58600.66;4981046;28;20034;-73
2023/05/08 01:50:07;;;;;;;6.25;4.43;;;;;;;-145.41;100.00;58600.66;4982537;28;20438;-73
2023/05/08 01:52:43;;;;;;;8.13;4.70;;;;;;;-145.41;100.00;58600.66;4980124;28;20031;-73
2023/05/08 01:55:15;;;;;;;8.02;5.20;;;;;;;-145.41;100.00;58600.66;4966616;28;20508;-73
2023/05/08 01:57:50;;;;;;;6.77;5.07;;;;;;;-145.41;100.00;58600.66;4967955;28;20038;-73
2023/05/08 02:00:19;;;;;;;10.75;5.35;;;;;;;-145.41;100.00;58600.66;4967609;28;20034;-73
2023/05/08 02:02:47;;;;;;;6.75;4.63;;;;;;;-145.41;100.00;58600.66;4962841;28;20446;-73
2023/05/08 02:05:13;;;;;;;6.55;4.88;;;;;;;-145.41;100.00;58600.66;4966896;28;20034;-73
2023/05/08 02:07:42;;;;;;;6.75;4.57;;;;;;;-145.41;100.00;58600.66;4966975;28;20106;-74
2023/05/08 02:10:09;;;;;;;6.80;4.60;;;;;;;-145.41;100.00;58600.66;4983191;28;20042;-73
2023/05/08 02:12:36;;;;;;;7.00;4.45;;;;;;;-145.41;100.00;58600.66;4984555;28;20041;-73
2023/05/08 02:15:02;;;;;;;7.00;4.45;;;;;;;-145.41;100.00;58600.66;4982729;28;20039;-74
2023/05/08 02:17:30;;;;;;;7.72;4.65;;;;;;;-145.41;100.00;58600.66;4967255;28;20481;-73
2023/05/08 02:19:57;;;;;;;6.72;4.68;;;;;;;-145.41;100.00;58600.66;4964479;28;20043;-73
2023/05/08 02:22:23;;;;;;;6.43;4.57;;;;;;;-145.41;100.00;58600.66;4973411;28;20505;-74
2023/05/08 02:24:57;;;;;;;6.65;4.85;;;;;;;-145.41;100.00;58600.66;4985341;28;20038;-74
2023/05/08 02:27:25;;;;;;;6.63;5.03;;;;;;;-145.41;100.00;58600.66;4982835;28;20069;-73
2023/05/08 02:29:53;;;;;;;7.28;5.10;;;;;;;-145.41;100.00;58600.66;4983347;28;20038;-73
2023/05/08 02:32:20;;;;;;;7.57;5.18;;;;;;;-145.41;100.00;58600.66;4983469;28;20425;-73
2023/05/08 02:34:47;;;;;;;7.07;5.20;;;;;;;-145.41;100.00;58600.66;4984003;28;20410;-73
2023/05/08 02:37:15;;;;;;;6.75;5.00;;;;;;;-145.41;100.00;58600.66;4982323;28;20068;-73
2023/05/08 02:39:42;;;;;;;8.73;5.25;;;;;;;-145.41;100.00;58600.66;4966329;28;20030;-73
2023/05/08 02:42:08;;;;;;;7.97;4.90;;;;;;;-145.41;100.00;58600.66;4964138;28;20113;-73
2023/05/08 02:44:33;;;;;;;7.05;4.88;;;;;;;-145.41;100.00;58600.66;4985209;28;20145;-74
2023/05/08 02:47:10;;;;;;;6.75;4.70;;;;;;;-145.41;100.00;58600.66;4963725;28;20027;-73
2023/05/08 02:49:52;;;;;;;6.85;5.00;;;;;;;-145.41;100.00;58600.66;4947267;28;20066;-73
2023/05/08 02:52:27;;;;;;;7.35;4.88;;;;;;;-145.41;100.00;58600.66;4963764;28;20073;-74
2023/05/08 02:55:18;;;;;;;6.85;4.88;;;;;;;-145.41;100.00;58600.66;4945594;28;20039;-74
2023/05/08 02:58:02;;;;;;;7.05;4.90;;;;;;;-145.41;100.00;58600.66;4959487;28;20401;-74
2023/05/08 03:00:34;;;;;;;7.55;5.75;;;;;;;-145.41;100.00;58600.66;4963716;28;20063;-74
2023/05/08 03:03:18;;;;;;;7.13;5.10;;;;;;;-145.41;100.00;58600.66;4957841;28;20082;-74
2023/05/08 03:05:51;;;;;;;7.53;5.18;;;;;;;-145.41;100.00;58600.66;4967149;28;20031;-74
2023/05/08 03:08:22;;;;;;;6.82;5.07;;;;;;;-145.41;100.00;58600.66;4964591;28;20478;-74
2023/05/08 03:10:51;;;;;;;7.28;4.97;;;;;;;-145.41;100.00;58600.66;4965956;28;20038;-74
2023/05/08 03:13:19;;;;;;;7.07;4.95;;;;;;;-145.41;100.00;58600.66;4982271;28;20039;-74
2023/05/08 03:15:52;;;;;;;6.97;5.18;;;;;;;-145.41;100.00;58600.66;4965110;28;20034;-73
2023/05/08 03:18:21;;;;;;;8.10;5.30;;;;;;;-145.41;100.00;58600.66;4966489;28;20105;-73
2023/05/08 03:20:51;;;;;;;7.78;5.53;;;;;;;-145.41;100.00;58600.66;4963054;28;20031;-73
2023/05/08 03:23:19;;;;;;;9.10;6.03;;;;;;;-145.41;100.00;58600.66;4981269;28;20077;-73
2023/05/08 03:25:45;;;;;;;7.50;5.38;;;;;;;-145.41;100.00;58600.66;4968319;28;20062;-74
2023/05/08 03:28:12;;;;;;;9.07;6.35;;;;;;;-145.41;100.00;58600.66;4965355;28;20061;-73
2023/05/08 03:30:40;;;;;;;9.05;7.18;;;;;;;-145.41;100.00;58600.66;4964364;28;20174;-73
2023/05/08 03:33:11;;;;;;;8.35;6.18;;;;;;;-145.41;100.00;58600.66;4964802;28;20520;-73
2023/05/08 03:35:37;;;;;;;8.45;6.20;;;;;;;-145.41;100.00;58600.66;4982904;28;20211;-74
2023/05/08 03:38:05;;;;;;;7.57;5.18;;;;;;;-145.41;100.00;58600.66;4963803;28;20030;-74
2023/05/08 03:40:35;;;;;;;8.32;5.65;;;;;;;-145.41;100.00;58600.66;4965973;28;20030;-74
2023/05/08 03:43:02;;;;;;;8.38;5.57;;;;;;;-145.41;100.00;58600.66;4969048;28;20030;-73
2023/05/08 03:45:30;;;;;;;6.80;5.18;;;;;;;-145.41;100.00;58600.66;4953797;28;20052;-74
2023/05/08 03:47:58;;;;;;;8.68;5.80;;;;;;;-145.41;100.00;58600.66;4965918;28;20069;-73
2023/05/08 03:50:24;;;;;;;6.20;4.47;;;;;;;-145.41;100.00;58600.66;4963708;28;20031;-73
2023/05/08 03:52:49;;;;;;;6.95;5.30;;;;;;;-145.41;100.00;58600.66;4982679;28;20040;-73
2023/05/08 03:55:14;;;;;;;7.88;5.53;;;;;;;-145.41;100.00;58600.66;4964788;28;20480;-74
2023/05/08 03:58:03;;;;;;;7.78;5.28;;;;;;;-145.41;100.00;58600.66;4965256;28;20023;-73
2023/05/08 04:00:51;;;;;;;8.57;6.13;;;;;;;-145.41;100.00;58600.66;4973993;28;20035;-74
2023/05/08 04:03:22;;;;;;;8.85;5.93;;;;;;;-145.41;100.00;58600.66;4958978;28;20126;-74
2023/05/08 04:06:13;;;;;;;7.65;5.53;;;;;;;-145.41;100.00;58600.66;4950242;28;20529;-74
2023/05/08 04:08:42;;;;;;;7.47;4.93;;;;;;;-145.41;100.00;58600.66;4944259;28;20494;-74
2023/05/08 04:11:26;;;;;;;7.20;5.45;;;;;;;-145.41;100.00;58600.66;4980293;28;20402;-74
2023/05/08 04:14:00;;;;;;;7.22;5.50;;;;;;;-145.41;100.00;58600.66;4965876;28;20084;-74
2023/05/08 04:16:28;;;;;;;7.15;5.32;;;;;;;-145.41;100.00;58600.66;4947676;28;20039;-74
2023/05/08 04:19:01;;;;;;;6.35;4.75;;;;;;;-145.41;100.00;58600.66;4964860;28;20496;-74
2023/05/08 04:21:28;;;;;;;7.95;5.68;;;;;;;-145.41;100.00;58600.66;4949273;28;20089;-74
2023/05/08 04:23:57;;;;;;;7.00;5.28;;;;;;;-145.41;100.00;58600.66;4960800;28;20045;-74
2023/05/08 04:26:25;;;;;;;20.80;11.82;;;;;;;-145.41;100.00;58600.66;4962031;28;20058;-74
2023/05/08 04:28:52;;;;;;;13.98;9.65;;;;;;;-145.41;100.00;58600.66;4963967;28;20034;-74
2023/05/08 04:31:18;;;;;;;9.25;6.63;;;;;;;-145.41;100.00;58600.66;4967843;28;20042;-74
2023/05/08 04:33:45;;;;;;;7.25;5.40;;;;;;;-145.41;100.00;58600.66;4959494;28;20051;-74
2023/05/08 04:36:12;;;;;;;7.25;4.95;;;;;;;-145.41;100.00;58600.66;4961541;28;20484;-73
2023/05/08 04:38:41;;;;;;;7.28;5.20;;;;;;;-145.41;100.00;58600.66;4954428;28;20027;-74
2023/05/08 04:41:07;;;;;;;7.35;5.43;;;;;;;-145.41;100.00;58600.66;4961197;28;20089;-74
2023/05/08 04:43:34;;;;;;;6.55;4.97;;;;;;;-145.41;100.00;58600.66;4948861;28;20039;-74
2023/05/08 04:45:59;;;;;;;7.10;5.00;;;;;;;-145.41;100.00;58600.66;4960346;28;20054;-74
2023/05/08 04:48:25;;;;;;;7.03;5.05;;;;;;;-145.41;100.00;58600.66;4960987;28;20065;-74
2023/05/08 04:50:51;;;;;;;7.95;5.70;;;;;;;-145.41;100.00;58600.66;4962829;28;20428;-74
2023/05/08 04:53:16;;;;;;;7.55;5.22;;;;;;;-145.41;100.00;58600.66;4971724;28;20454;-74
2023/05/08 04:55:42;;;;;;;7.30;5.30;;;;;;;-145.41;100.00;58600.66;4967517;28;20038;-74
2023/05/08 04:58:09;;;;;;;7.55;5.40;;;;;;;-145.41;100.00;58600.66;4955914;28;20461;-74
2023/05/08 05:00:35;;;;;;;8.35;5.80;;;;;;;-145.41;100.00;58600.66;4955707;28;20127;-74
2023/05/08 05:03:00;;;;;;;7.43;5.10;;;;;;;-145.41;100.00;58600.66;4980899;28;20118;-74
2023/05/08 05:05:26;;;;;;;10.93;6.22;;;;;;;-145.41;100.00;58600.66;4971383;28;20045;-74
2023/05/08 05:07:51;;;;;;;34.50;21.38;;;;;;;-145.41;100.00;58600.66;4974184;28;20030;-74
2023/05/08 05:10:18;;;;;;;16.40;12.20;;;;;;;-145.41;100.00;58600.66;4968454;28;20039;-74
2023/05/08 05:12:44;;;;;;;10.45;7.72;;;;;;;-145.41;100.00;58600.66;4966155;28;20070;-74
2023/05/08 05:15:10;;;;;;;9.50;7.00;;;;;;;-145.41;100.00;58600.66;4968506;28;20039;-74
2023/05/08 05:17:37;;;;;;;7.10;5.70;;;;;;;-145.41;100.00;58600.66;4969143;28;20030;-74
2023/05/08 05:20:06;;;;;;;7.07;6.05;;;;;;;-145.41;100.00;58600.66;4964248;28;20113;-74
2023/05/08 05:22:32;;;;;;;7.75;5.90;;;;;;;-145.41;100.00;58600.66;4986196;28;20042;-74
2023/05/08 05:24:57;;;;;;;7.65;4.82;;;;;;;-145.41;100.00;58600.66;4965999;28;20033;-74
2023/05/08 05:27:23;;;;;;;7.78;5.15;;;;;;;-145.41;100.00;58600.66;4975630;28;20076;-74
2023/05/08 05:29:50;;;;;;;8.85;5.10;;;;;;;-145.41;100.00;58600.66;4974166;28;20043;-74
2023/05/08 05:32:15;;;;;;;8.25;5.38;;;;;;;-145.41;100.00;58600.66;4975716;28;20452;-74
2023/05/08 05:34:41;;;;;;;6.35;4.55;;;;;;;-145.41;100.00;58600.66;4973160;28;20496;-74
2023/05/08 05:37:06;;;;;;;6.88;4.93;;;;;;;-145.41;100.00;58600.66;4972694;28;20034;-74
2023/05/08 05:39:32;;;;;;;8.27;5.32;;;;;;;-145.41;100.00;58600.66;4974648;28;20042;-74
2023/05/08 05:41:57;;;;;;;7.75;4.82;;;;;;;-145.41;100.00;58600.66;4984930;28;20037;-74
2023/05/08 05:44:23;;;;;;;8.52;5.03;;;;;;;-145.41;100.00;58600.66;4974992;28;20109;-74
2023/05/08 05:46:48;;;;;;;7.03;4.78;;;;;;;-145.41;100.00;58600.66;4968443;28;20022;-74
2023/05/08 05:49:15;;;;;;;8.32;5.22;;;;;;;-145.41;100.00;58600.66;4969612;28;20537;-74
2023/05/08 05:51:40;;;;;;;7.43;5.35;;;;;;;-145.41;100.00;58600.66;4969028;28;20026;-74
2023/05/08 05:54:06;;;;;;;7.53;4.72;;;;;;;-145.41;100.00;58600.66;4967997;28;20585;-74
2023/05/08 05:56:31;;;;;;;9.77;5.57;;;;;;;-145.41;100.00;58600.66;4958931;28;20524;-74
2023/05/08 05:58:56;;;;;;;6.10;5.00;;;;;;;-145.41;100.00;58600.66;4983902;28;20039;-74
2023/05/08 06:01:23;;;;;;;7.00;5.68;;;;;;;-145.41;100.00;58600.66;4974081;28;20034;-74
2023/05/08 06:03:49;;;;;;;7.35;4.90;;;;;;;-145.41;100.00;58600.66;4967237;28;20050;-74
2023/05/08 06:06:15;;;;;;;8.85;5.65;;;;;;;-145.41;100.00;58600.66;4974555;28;20038;-74
2023/05/08 06:08:40;;;;;;;8.05;5.68;;;;;;;-145.41;100.00;58600.66;4982732;28;20031;-74
2023/05/08 06:11:05;;;;;;;8.02;5.60;;;;;;;-145.41;100.00;58600.66;4980306;28;20428;-74
2023/05/08 06:13:31;;;;;;;7.10;4.82;;;;;;;-145.41;100.00;58600.66;4982916;28;20404;-74
2023/05/08 06:15:56;;;;;;;8.70;6.07;;;;;;;-145.41;100.00;58600.66;4966261;28;20133;-75
2023/05/08 06:18:23;;;;;;;7.13;5.05;;;;;;;-145.41;100.00;58600.66;4969424;28;20408;-74
2023/05/08 06:20:48;;;;;;;7.45;4.70;;;;;;;-145.41;100.00;58600.66;4965893;28;20117;-74
2023/05/08 06:23:13;;;;;;;7.22;4.80;;;;;;;-145.41;100.00;58600.66;4982301;28;20034;-74
2023/05/08 06:25:39;;;;;;;7.50;4.75;;;;;;;-145.41;100.00;58600.66;4985007;28;20121;-74
2023/05/08 06:28:06;;;;;;;6.50;4.90;;;;;;;-145.41;100.00;58600.66;4981888;28;20030;-74
2023/05/08 06:30:32;;;;;;;6.80;5.03;;;;;;;-145.41;100.00;58600.66;4984373;28;20042;-74
2023/05/08 06:32:58;;;;;;;6.97;4.45;;;;;;;-145.41;100.00;58600.66;4977738;28;20072;-74
2023/05/08 06:35:23;;;;;;;7.25;4.75;;;;;;;-145.41;100.00;58600.66;4982824;28;20057;-74
2023/05/08 06:37:48;;;;;;;7.80;5.05;;;;;;;-145.41;100.00;58600.66;4984834;28;20125;-74
2023/05/08 06:40:14;;;;;;;6.93;5.15;;;;;;;-145.41;100.00;58600.66;4979942;28;20035;-74
2023/05/08 06:42:40;;;;;;;6.18;4.38;;;;;;;-145.41;100.00;58600.66;4980780;28;20082;-74
2023/05/08 06:45:06;;;;;;;10.07;4.85;;;;;;;-145.41;100.00;58600.66;4984486;28;20139;-74
2023/05/08 06:47:32;;;;;;;8.98;4.65;;;;;;;-145.41;100.00;58600.66;4981669;28;20038;-74
2023/05/08 06:49:57;;;;;;;6.70;4.47;;;;;;;-145.41;100.00;58600.66;4983895;28;20133;-74
2023/05/08 06:52:24;;;;;;;5.72;4.28;;;;;;;-145.41;100.00;58600.66;4981752;28;20077;-74
2023/05/08 06:54:49;;;;;;;6.25;4.50;;;;;;;-145.41;100.00;58600.66;4982341;28;20041;-74
2023/05/08 06:57:15;;;;;;;7.10;4.25;;;;;;;-145.41;100.00;58600.66;4979106;28;20405;-74
2023/05/08 06:59:40;;;;;;;6.40;4.35;;;;;;;-145.41;100.00;58600.66;4982063;28;20046;-74
2023/05/08 07:02:06;;;;;;;6.10;4.55;;;;;;;-145.41;100.00;58600.66;4973654;28;20041;-74
2023/05/08 07:04:31;;;;;;;6.75;4.50;;;;;;;-145.41;100.00;58600.66;4982471;28;20039;-74
2023/05/08 07:06:57;;;;;;;7.15;4.63;;;;;;;-145.41;100.00;58600.66;4982776;28;20041;-74
2023/05/08 07:09:22;;;;;;;9.20;4.65;;;;;;;-145.41;100.00;58600.66;4983540;28;20038;-74
2023/05/08 07:11:48;;;;;;;6.07;4.55;;;;;;;-145.41;100.00;58600.66;4957565;28;20446;-74
2023/05/08 07:14:13;;;;;;;7.07;4.07;;;;;;;-145.41;100.00;58600.66;4980054;28;20417;-74
2023/05/08 07:16:38;;;;;;;6.10;3.60;;;;;;;-145.41;100.00;58600.66;4983556;28;20166;-74
2023/05/08 07:19:04;;;;;;;10.27;6.70;;;;;;;-145.41;100.00;58600.66;4980473;28;20634;-74
2023/05/08 07:21:29;;;;;;;13.18;9.70;;;;;;;-145.41;100.00;58600.66;4982670;28;20516;-74
2023/05/08 07:23:55;;;;;;;9.98;7.68;;;;;;;-145.41;100.00;58600.66;4981205;28;20408;-74
2023/05/08 07:26:21;;;;;;;20.05;11.13;;;;;;;-145.41;100.00;58600.66;4980783;28;20034;-74
2023/05/08 07:28:47;;;;;;;15.80;10.15;;;;;;;-145.41;100.00;58600.66;4980997;28;20069;-75
2023/05/08 07:31:12;;;;;;;13.52;9.75;;;;;;;-145.41;100.00;58600.66;4982899;28;20046;-74
2023/05/08 07:33:37;;;;;;;13.27;9.15;;;;;;;-145.41;100.00;58600.66;4974833;28;20065;-74
2023/05/08 07:36:03;;;;;;;13.15;7.82;;;;;;;-145.41;100.00;58600.66;4967393;28;20105;-74
2023/05/08 07:38:28;;;;;;;6.15;3.78;;;;;;;-145.41;100.00;58600.66;4981289;28;20089;-74
2023/05/08 07:40:56;;;;;;;5.93;3.45;;;;;;;-145.41;100.00;58600.66;4983174;28;20030;-74
2023/05/08 07:43:24;;;;;;;5.05;3.35;;;;;;;-145.41;100.00;58600.66;4979200;28;20092;-74
2023/05/08 07:45:50;;;;;;;5.90;3.80;;;;;;;-145.41;100.00;58600.66;4971725;28;20070;-75
2023/05/08 07:48:16;;;;;;;4.50;3.28;;;;;;;-145.41;100.00;58600.66;4980613;28;20467;-74
2023/05/08 07:50:41;;;;;;;4.70;3.08;;;;;;;-145.41;100.00;58600.66;4980106;28;20110;-74
2023/05/08 07:53:07;;;;;;;4.63;2.90;;;;;;;-145.41;100.00;58600.66;4983999;28;20401;-74
2023/05/08 07:55:32;;;;;;;4.55;3.03;;;;;;;-145.41;100.00;58600.66;4982130;28;20034;-74
2023/05/08 07:57:58;;;;;;;4.13;2.42;;;;;;;-145.41;100.00;58600.66;4980224;28;20035;-74
2023/05/08 08:00:23;;;;;;;4.88;2.90;;;;;;;-145.41;100.00;58600.66;4983293;28;20125;-74
2023/05/08 08:02:48;;;;;;;4.35;2.67;;;;;;;-145.41;100.00;58600.66;4980582;28;20621;-74
2023/05/08 08:05:14;;;;;;;4.53;3.00;;;;;;;-145.41;100.00;58600.66;4983217;28;20038;-74
2023/05/08 08:07:39;;;;;;;3.85;2.22;;;;;;;-145.41;100.00;58600.66;4981019;28;20086;-74
2023/05/08 08:10:05;;;;;;;4.47;2.75;;;;;;;-145.41;100.00;58600.66;4983073;28;20038;-74
2023/05/08 08:12:31;;;;;;;4.47;2.38;;;;;;;-145.41;100.00;58600.66;4980308;28;20044;-74
2023/05/08 08:14:56;;;;;;;4.35;2.30;;;;;;;-145.41;100.00;58600.66;4980886;28;20129;-74
2023/05/08 08:17:22;;;;;;;3.83;2.22;;;;;;;-145.41;100.00;58600.66;4982685;28;20041;-75
2023/05/08 08:19:47;;;;;;;4.53;2.53;;;;;;;-145.41;100.00;58600.66;4980788;28;20436;-74
2023/05/08 08:22:13;;;;;;;4.93;3.00;;;;;;;-145.41;100.00;58600.66;4982633;28;20566;-75
2023/05/08 08:24:38;;;;;;;4.50;2.65;;;;;;;-145.41;100.00;58600.66;4981311;28;20042;-74
2023/05/08 08:27:04;;;;;;;4.22;2.80;;;;;;;-145.41;100.00;58600.66;4982259;28;20038;-75
2023/05/08 08:29:29;;;;;;;5.50;2.40;;;;;;;-145.41;100.00;58600.66;4981089;28;20045;-75
2023/05/08 08:31:55;;;;;;;4.25;2.55;;;;;;;-145.41;100.00;58600.66;4981908;28;20089;-74
2023/05/08 08:34:20;;;;;;;3.63;2.20;;;;;;;-145.41;100.00;58600.66;4972546;28;20046;-74
2023/05/08 08:36:46;;;;;;;5.75;1.92;;;;;;;-145.41;100.00;58600.66;4981934;28;20157;-74
2023/05/08 08:39:11;;;;;;;3.40;2.00;;;;;;;-145.41;100.00;58600.66;4979184;28;20499;-74
2023/05/08 08:41:40;;;;;;;3.60;1.80;;;;;;;-145.41;100.00;58600.66;4986842;28;20030;-74
2023/05/08 08:44:05;;;;;;;4.32;1.90;;;;;;;-145.41;100.00;58600.66;4984985;28;20394;-74
2023/05/08 08:46:34;;;;;;;3.92;1.70;;;;;;;-145.41;100.00;58600.66;4982976;28;20030;-74
2023/05/08 08:49:02;;;;;;;2.88;1.85;;;;;;;-145.41;100.00;58600.66;4986016;28;20057;-75
2023/05/08 08:51:32;;;;;;;3.38;1.33;;;;;;;-145.41;100.00;58600.66;4983851;28;20078;-75
2023/05/08 08:54:08;;;;;;;4.57;2.15;;;;;;;-145.41;100.00;58600.66;4981576;28;20117;-75
2023/05/08 08:56:37;;;;;;;5.38;2.00;;;;;;;-145.41;100.00;58600.66;4984930;28;20102;-74
2023/05/08 08:59:03;;;;;;;4.20;1.88;;;;;;;-145.41;100.00;58600.66;4979402;28;20494;-75
2023/05/08 09:01:32;;;;;;;5.15;1.92;;;;;;;-145.41;100.00;58600.66;4956084;28;20037;-75
2023/05/08 09:04:01;;;;;;;3.40;1.55;;;;;;;-145.41;100.00;58600.66;4979608;28;20101;-75
2023/05/08 09:06:27;;;;;;;5.25;1.50;;;;;;;-145.41;100.00;58600.66;4966095;28;20151;-75
2023/05/08 09:08:56;;;;;;;3.03;1.38;;;;;;;-145.41;100.00;58600.66;4969494;28;20049;-75
2023/05/08 09:11:23;;;;;;;3.05;1.55;;;;;;;-145.41;100.00;58600.66;4975229;28;20041;-75
2023/05/08 09:13:49;;;;;;;2.92;1.42;;;;;;;-145.41;100.00;58600.66;4975171;28;20034;-75
2023/05/08 09:16:14;;;;;;;4.00;1.40;;;;;;;-145.41;100.00;58600.66;4982793;28;20049;-75
2023/05/08 09:18:40;;;;;;;2.97;1.00;;;;;;;-145.41;100.00;58600.66;4984561;28;20030;-75
2023/05/08 09:21:05;;;;;;;2.88;1.42;;;;;;;-145.41;100.00;58600.66;4985535;28;20473;-75
2023/05/08 09:23:31;;;;;;;5.45;2.65;;;;;;;-145.41;100.00;58600.66;4983927;28;20035;-75
2023/05/08 09:25:56;;;;;;;4.47;2.42;;;;;;;-145.41;100.00;58600.66;4983080;28;20073;-75
2023/05/08 09:28:25;;;;;;;5.82;1.95;;;;;;;-145.41;100.00;58600.66;4985167;28;20065;-75
2023/05/08 09:30:53;;;;;;;2.33;1.02;;;;;;;-145.41;100.00;58600.66;4983771;28;20057;-75
2023/05/08 09:33:20;;;;;;;2.95;1.63;;;;;;;-145.41;100.00;58600.66;4972141;28;20572;-74
2023/05/08 09:35:49;;;;;;;4.65;1.77;;;;;;;-145.41;100.00;58600.66;4984788;28;20538;-75
2023/05/08 09:38:37;;;;;;;3.60;1.67;;;;;;;-145.41;100.00;58600.66;4981004;28;20054;-75
2023/05/08 09:41:07;;;;;;;1.98;1.30;;;;;;;-145.41;100.00;58600.66;4982921;28;20038;-75
2023/05/08 09:43:33;;;;;;;4.63;1.63;;;;;;;-145.41;100.00;58600.66;4981349;28;20069;-75
2023/05/08 09:46:18;;;;;;;2.90;1.60;;;;;;;-145.41;100.00;58600.66;4979448;28;20378;-75
2023/05/08 09:48:44;;;;;;;4.95;1.60;;;;;;;-145.41;100.00;58600.66;4983085;28;20035;-75
2023/05/08 09:51:10;;;;;;;1.83;1.10;;;;;;;-145.41;100.00;58600.66;4973196;28;20436;-75
2023/05/08 09:53:35;;;;;;;3.08;1.85;;;;;;;-145.41;100.00;58600.66;4984420;28;20042;-74
2023/05/08 09:56:01;;;;;;;3.13;1.40;;;;;;;-145.41;100.00;58600.66;4983679;28;20038;-75
2023/05/08 09:58:36;;;;;;;3.20;1.73;;;;;;;-145.41;100.00;58600.66;4983169;28;20433;-75
2023/05/08 10:01:02;;;;;;;3.78;2.30;;;;;;;-145.41;100.00;58600.66;4984695;28;20038;-75
2023/05/08 10:03:45;;;;;;;3.53;1.80;;;;;;;-145.41;100.00;58600.66;4965982;28;20042;-75
2023/05/08 10:06:12;;;;;;;4.00;1.30;;;;;;;-145.41;100.00;58600.66;4984646;28;20125;-75
2023/05/08 10:08:38;;;;;;;2.65;1.33;;;;;;;-145.41;100.00;58600.66;4981166;28;20030;-75
2023/05/08 10:11:17;;;;;;;2.72;1.20;;;;;;;-145.41;100.00;58600.66;4982690;28;20090;-75
2023/05/08 10:13:43;;;;;;;3.25;1.05;;;;;;;-145.41;100.00;58600.66;4977833;28;20418;-75
2023/05/08 10:16:17;;;;;;;2.90;1.30;;;;;;;-145.41;100.00;58600.66;4984268;28;20561;-75
2023/05/08 10:18:47;;;;;;;3.60;1.40;;;;;;;-145.41;100.00;58600.66;4984778;28;20034;-75
2023/05/08 10:21:13;;;;;;;2.28;1.17;;;;;;;-145.41;100.00;58600.66;4984766;28;20038;-75
2023/05/08 10:23:41;;;;;;;2.80;1.30;;;;;;;-145.41;100.00;58600.66;4982180;28;20093;-75
2023/05/08 10:26:12;;;;;;;4.38;1.23;;;;;;;-145.41;100.00;58600.66;4982383;28;20036;-75
2023/05/08 10:28:43;;;;;;;5.55;2.90;;;;;;;-145.41;100.00;58600.66;4978171;28;20052;-75
2023/05/08 10:31:14;;;;;;;3.83;2.25;;;;;;;-145.41;100.00;58600.66;4978600;28;20050;-75
2023/05/08 10:33:43;;;;;;;3.67;1.63;;;;;;;-145.41;100.00;58600.66;4983098;28;20527;-75
2023/05/08 10:36:08;;;;;;;3.00;1.38;;;;;;;-145.41;100.00;58600.66;4967929;28;20043;-75
2023/05/08 10:38:36;;;;;;;4.38;1.35;;;;;;;-145.41;100.00;58600.66;4982116;28;20084;-75
2023/05/08 10:41:02;;;;;;;3.83;1.60;;;;;;;-145.41;100.00;58600.66;4984248;28;20125;-75
2023/05/08 10:43:29;;;;;;;4.28;2.00;;;;;;;-145.41;100.00;58600.66;4980401;28;20117;-75
2023/05/08 10:45:56;;;;;;;3.13;1.70;;;;;;;-145.41;100.00;58600.66;4984667;28;20034;-75
2023/05/08 10:48:56;;;;;;;2.83;1.35;;;;;;;-145.41;100.00;58600.66;4977139;28;20473;-75
2023/05/08 10:51:51;;;;;;;5.68;1.23;;;;;;;-145.41;100.00;58600.66;4946827;28;20472;-76
2023/05/08 10:54:41;;;;;;;4.10;1.85;;;;;;;-145.41;100.00;58600.66;4979445;28;20428;-75
2023/05/08 10:57:10;;;;;;;5.28;2.13;;;;;;;-145.41;100.00;58600.66;4978148;28;20034;-75
2023/05/08 10:59:36;;;;;;;4.30;1.40;;;;;;;-145.41;100.00;58600.66;4983201;28;20409;-75
2023/05/08 11:02:08;;;;;;;4.60;1.98;;;;;;;-145.41;100.00;58600.66;4981510;28;20043;-75
2023/05/08 11:04:34;;;;;;;7.07;2.83;;;;;;;-145.41;100.00;58600.66;4982686;28;20080;-75
2023/05/08 11:06:59;;;;;;;4.13;2.03;;;;;;;-145.41;100.00;58600.66;4979165;28;20070;-76
2023/05/08 11:09:39;;;;;;;6.38;2.47;;;;;;;-145.41;100.00;58600.66;4979104;28;20038;-75
2023/05/08 11:12:19;;;;;;;4.95;2.50;;;;;;;-145.41;100.00;58600.66;4982926;28;20145;-75
2023/05/08 11:15:03;;;;;;;5.47;1.60;;;;;;;-145.41;100.00;58600.66;4980322;28;20039;-75
2023/05/08 11:17:28;;;;;;;3.47;1.90;;;;;;;-145.41;100.00;58600.66;4979343;28;20034;-75